St. Elmo — WDG2405 — position and weather

sailwx.info

Track history (hours):
 
Tides and Currents Weather Stations Pressure Air Temp Water Temp Dewpoint Dewpoint Depression Visibility Wind Speed Wind Dir Waves Ship Positions

St. Elmo

Owner: Marquette Transportation Company Gulf-Inland, LLC, Jefferson, LA. More information available from US FCC via Universal Licensing System and Coast Guard Vessel Documentation Center.

Last reported at 2015-Feb-26 04:29 UTC. Time now 2015-Mar-05 06:37 UTC.
Position N 29°33' W 094°54'.

; draft 3.2 m.

MMSI: 367515330.

Date/timePositionNaut miles runAvg speedWind from/ knotsBaromVisibWave heightAir tempDewpointWater temp
2015-Feb-26 04:29N 29°33' W 094°54'6 6.1
2015-Feb-26 03:33N 29°37' W 094°58'6 6.0
2015-Feb-26 02:33N 29°43' W 095°01'5 1.4
2015-Feb-25 23:07N 29°46' W 095°05'3 5.7
2015-Feb-25 22:33N 29°44' W 095°02'6 5.7
2015-Feb-25 21:33N 29°39' W 094°58'7 6.6
2015-Feb-25 20:33N 29°34' W 094°55'  
2015-Feb-21 01:33N 29°34' W 094°55'5 5.4
2015-Feb-21 00:33N 29°38' W 094°58'5 5.0
2015-Feb-20 23:33N 29°43' W 095°01'5 4.7
2015-Feb-20 22:33N 29°46' W 095°05'1 0.8
2015-Feb-20 21:33N 29°45' W 095°06'0 0.4
2015-Feb-20 20:31N 29°45' W 095°06'0 0.0
2015-Feb-20 19:33N 29°45' W 095°06'0 0.1
2015-Feb-20 18:33N 29°45' W 095°06'0 0.0
2015-Feb-20 17:33N 29°45' W 095°06'0 0.0
2015-Feb-20 16:33N 29°45' W 095°06'1 1.4
2015-Feb-20 15:33N 29°46' W 095°05'1 0.6
2015-Feb-20 14:33N 29°46' W 095°06'1 0.6
2015-Feb-20 13:33N 29°46' W 095°05'0 0.2
2015-Feb-20 12:33N 29°46' W 095°06'0 0.0
2015-Feb-20 11:31N 29°46' W 095°06'0 0.0
2015-Feb-20 10:33N 29°46' W 095°06'0 0.0
2015-Feb-20 09:33N 29°46' W 095°06'0 0.0
2015-Feb-20 08:33N 29°46' W 095°06'1 0.8
2015-Feb-20 07:33N 29°46' W 095°05'5 5.1
2015-Feb-20 06:33N 29°42' W 095°01'6 5.9
2015-Feb-20 05:33N 29°37' W 094°57'6 6.2
2015-Feb-20 04:33N 29°32' W 094°53'  
Track history (hours):
 
Tides and Currents Weather Stations Pressure Air Temp Water Temp Dewpoint Dewpoint Depression Visibility Wind Speed Wind Dir Waves Ship Positions

St. Elmo

Owner: Marquette Transportation Company Gulf-Inland, LLC, Jefferson, LA. More information available from US FCC via Universal Licensing System and Coast Guard Vessel Documentation Center.

Last reported at 2015-Feb-26 04:29 UTC. Time now 2015-Mar-05 06:37 UTC.
Position N 29°33' W 094°54'.

; draft 3.2 m.

MMSI: 367515330.

Date/timePositionNaut miles runAvg speedWind from/ knotsBaromVisibWave heightAir tempDewpointWater temp
2015-Feb-26 04:29N 29°33' W 094°54'6 6.1
2015-Feb-26 03:33N 29°37' W 094°58'6 6.0
2015-Feb-26 02:33N 29°43' W 095°01'5 1.4
2015-Feb-25 23:07N 29°46' W 095°05'3 5.7
2015-Feb-25 22:33N 29°44' W 095°02'6 5.7
2015-Feb-25 21:33N 29°39' W 094°58'7 6.6
2015-Feb-25 20:33N 29°34' W 094°55'  
2015-Feb-21 01:33N 29°34' W 094°55'5 5.4
2015-Feb-21 00:33N 29°38' W 094°58'5 5.0
2015-Feb-20 23:33N 29°43' W 095°01'5 4.7
2015-Feb-20 22:33N 29°46' W 095°05'1 0.8
2015-Feb-20 21:33N 29°45' W 095°06'0 0.4
2015-Feb-20 20:31N 29°45' W 095°06'0 0.0
2015-Feb-20 19:33N 29°45' W 095°06'0 0.1
2015-Feb-20 18:33N 29°45' W 095°06'0 0.0
2015-Feb-20 17:33N 29°45' W 095°06'0 0.0
2015-Feb-20 16:33N 29°45' W 095°06'1 1.4
2015-Feb-20 15:33N 29°46' W 095°05'1 0.6
2015-Feb-20 14:33N 29°46' W 095°06'1 0.6
2015-Feb-20 13:33N 29°46' W 095°05'0 0.2
2015-Feb-20 12:33N 29°46' W 095°06'0 0.0
2015-Feb-20 11:31N 29°46' W 095°06'0 0.0
2015-Feb-20 10:33N 29°46' W 095°06'0 0.0
2015-Feb-20 09:33N 29°46' W 095°06'0 0.0
2015-Feb-20 08:33N 29°46' W 095°06'1 0.8
2015-Feb-20 07:33N 29°46' W 095°05'5 5.1
2015-Feb-20 06:33N 29°42' W 095°01'6 5.9
2015-Feb-20 05:33N 29°37' W 094°57'6 6.2
2015-Feb-20 04:33N 29°32' W 094°53'  

Dump ship's entire track history